Time,TemperatureF,DewpointF,PressureIn,WindDirection,WindDirectionDegrees,WindSpeedMPH,WindSpeedGustMPH,Humidity,HourlyPrecipIn,Conditions,Clouds,dailyrainin,SolarRadiationWatts/m^2,SoftwareType,DateUTC
2013-02-14 00:00:00,59.7,55.5,30.12,NW,306,3.0,3.0,86,0.00,,,0.00,0,Wunderground v.1.15,2013-02-14 10:00:00,
2013-02-14 00:10:00,60.2,55.7,30.12,NW,306,3.0,3.0,85,0.00,,,0.00,0,Wunderground v.1.15,2013-02-14 10:10:00,
2013-02-14 00:15:00,60.1,55.6,30.12,NW,306,2.0,4.0,85,0.00,,,0.00,0,Wunderground v.1.15,2013-02-14 10:15:00,
2013-02-14 00:20:00,60.0,55.5,30.12,NW,306,3.0,4.0,85,0.00,,,0.00,0,Wunderground v.1.15,2013-02-14 10:20:00,
2013-02-14 00:30:00,60.0,55.5,30.12,NW,306,3.0,3.0,85,0.00,,,0.00,0,Wunderground v.1.15,2013-02-14 10:30:00,
2013-02-14 00:40:00,59.9,55.7,30.11,NW,306,3.0,3.0,86,0.00,,,0.00,0,Wunderground v.1.15,2013-02-14 10:40:00,
2013-02-14 00:45:00,59.8,55.6,30.11,NW,306,3.0,3.0,86,0.00,,,0.00,0,Wunderground v.1.15,2013-02-14 10:45:00,
2013-02-14 00:50:00,59.7,55.2,30.11,NW,306,3.0,4.0,85,0.00,,,0.00,0,Wunderground v.1.15,2013-02-14 10:50:00,
2013-02-14 00:55:00,59.7,55.2,30.11,NW,306,2.0,5.0,85,0.00,,,0.00,0,Wunderground v.1.15,2013-02-14 10:55:00,
2013-02-14 01:00:00,59.7,55.2,30.11,NW,307,3.0,3.0,85,0.00,,,0.00,0,Wunderground v.1.15,2013-02-14 11:00:00,
2013-02-14 01:10:00,59.7,55.2,30.11,NW,307,2.0,2.0,85,0.00,,,0.00,0,Wunderground v.1.15,2013-02-14 11:10:00,
2013-02-14 01:20:00,59.7,54.9,30.11,NW,307,2.0,5.0,84,0.00,,,0.00,0,Wunderground v.1.15,2013-02-14 11:20:00,
2013-02-14 01:25:00,59.7,54.9,30.10,NW,307,2.0,5.0,84,0.00,,,0.00,0,Wunderground v.1.15,2013-02-14 11:25:00,
2013-02-14 01:30:00,59.7,54.9,30.10,NW,308,2.0,5.0,84,0.00,,,0.00,0,Wunderground v.1.15,2013-02-14 11:30:00,
2013-02-14 01:35:00,59.8,55.0,30.10,NW,308,3.0,5.0,84,0.00,,,0.00,0,Wunderground v.1.15,2013-02-14 11:35:00,
2013-02-14 01:40:00,59.9,55.1,30.10,NW,308,2.0,3.0,84,0.00,,,0.00,0,Wunderground v.1.15,2013-02-14 11:40:00,
2013-02-14 01:45:00,59.7,54.9,30.10,NW,308,2.0,3.0,84,0.00,,,0.00,0,Wunderground v.1.15,2013-02-14 11:45:00,
2013-02-14 01:50:00,59.3,54.8,30.10,NW,308,1.0,1.0,85,0.00,,,0.00,0,Wunderground v.1.15,2013-02-14 11:50:00,
2013-02-14 02:00:00,58.8,55.3,30.10,NW,308,2.0,3.0,88,0.00,,,0.00,0,Wunderground v.1.15,2013-02-14 12:00:00,
2013-02-14 02:10:00,58.9,55.4,30.09,NW,308,2.0,2.0,88,0.00,,,0.00,0,Wunderground v.1.15,2013-02-14 12:10:00,
2013-02-14 02:15:00,59.3,55.4,30.09,NW,308,3.0,4.0,87,0.00,,,0.00,0,Wunderground v.1.15,2013-02-14 12:15:00,
2013-02-14 02:20:00,59.8,55.9,30.09,NW,308,3.0,3.0,87,0.00,,,0.00,0,Wunderground v.1.15,2013-02-14 12:20:00,
2013-02-14 02:30:00,59.8,55.6,30.08,NW,308,1.0,4.0,86,0.00,,,0.00,0,Wunderground v.1.15,2013-02-14 12:30:00,
2013-02-14 02:35:00,59.9,55.4,30.08,NW,308,3.0,4.0,85,0.00,,,0.00,0,Wunderground v.1.15,2013-02-14 12:35:00,
2013-02-14 02:40:00,60.1,55.2,30.08,NW,308,4.0,4.0,84,0.00,,,0.00,0,Wunderground v.1.15,2013-02-14 12:40:00,
2013-02-14 02:45:00,60.3,55.4,30.08,NW,309,3.0,4.0,84,0.00,,,0.00,0,Wunderground v.1.15,2013-02-14 12:45:00,
2013-02-14 02:50:00,60.3,55.4,30.08,NW,308,2.0,3.0,84,0.00,,,0.00,0,Wunderground v.1.15,2013-02-14 12:50:00,
2013-02-14 02:55:00,60.3,55.4,30.08,NW,309,2.0,3.0,84,0.00,,,0.00,0,Wunderground v.1.15,2013-02-14 12:55:00,
2013-02-14 03:00:00,60.3,55.4,30.08,NW,309,3.0,3.0,84,0.00,,,0.00,0,Wunderground v.1.15,2013-02-14 13:00:00,
2013-02-14 03:10:00,60.3,55.4,30.08,NW,309,2.0,2.0,84,0.00,,,0.00,0,Wunderground v.1.15,2013-02-14 13:10:00,
2013-02-14 03:15:00,60.0,55.2,30.08,NW,309,2.0,2.0,84,0.00,,,0.00,0,Wunderground v.1.15,2013-02-14 13:15:00,
2013-02-14 03:20:00,59.9,55.1,30.08,NW,309,3.0,4.0,84,0.00,,,0.00,0,Wunderground v.1.15,2013-02-14 13:20:00,
2013-02-14 03:30:00,60.1,55.2,30.07,NW,309,1.0,3.0,84,0.00,,,0.00,0,Wunderground v.1.15,2013-02-14 13:30:00,
2013-02-14 03:35:00,60.3,55.1,30.07,WNW,300,2.0,3.0,83,0.00,,,0.00,0,Wunderground v.1.15,2013-02-14 13:35:00,
2013-02-14 03:40:00,60.3,55.1,30.07,WNW,300,2.0,4.0,83,0.00,,,0.00,0,Wunderground v.1.15,2013-02-14 13:40:00,
2013-02-14 03:45:00,60.1,54.9,30.07,WNW,300,1.0,4.0,83,0.00,,,0.00,0,Wunderground v.1.15,2013-02-14 13:45:00,
2013-02-14 03:50:00,59.9,55.1,30.07,WNW,300,0.0,0.0,84,0.00,,,0.00,0,Wunderground v.1.15,2013-02-14 13:50:00,
2013-02-14 04:00:00,58.9,54.7,30.07,WNW,300,1.0,5.0,86,0.00,,,0.00,0,Wunderground v.1.15,2013-02-14 14:00:00,
2013-02-14 04:10:00,58.7,55.2,30.07,NW,311,3.0,3.0,88,0.00,,,0.00,0,Wunderground v.1.15,2013-02-14 14:10:00,
2013-02-14 04:15:00,58.9,55.0,30.07,NW,311,3.0,3.0,87,0.00,,,0.00,0,Wunderground v.1.15,2013-02-14 14:15:00,
2013-02-14 04:20:00,58.9,55.0,30.07,NW,311,3.0,4.0,87,0.00,,,0.00,0,Wunderground v.1.15,2013-02-14 14:20:00,
2013-02-14 04:25:00,58.4,54.5,30.07,NW,311,3.0,4.0,87,0.00,,,0.00,0,Wunderground v.1.15,2013-02-14 14:25:00,
2013-02-14 04:30:00,58.5,54.6,30.07,NW,311,3.0,3.0,87,0.00,,,0.00,0,Wunderground v.1.15,2013-02-14 14:30:00,
2013-02-14 04:35:00,58.5,54.6,30.07,NW,311,3.0,3.0,87,0.00,,,0.00,0,Wunderground v.1.15,2013-02-14 14:35:00,
2013-02-14 04:40:00,58.0,54.2,30.07,NW,311,2.0,4.0,87,0.00,,,0.00,0,Wunderground v.1.15,2013-02-14 14:40:00,
2013-02-14 04:45:00,57.3,54.1,30.07,NW,313,2.0,4.0,89,0.00,,,0.00,0,Wunderground v.1.15,2013-02-14 14:45:00,
2013-02-14 04:55:00,57.6,54.1,30.08,NW,315,2.0,3.0,88,0.00,,,0.00,0,Wunderground v.1.15,2013-02-14 14:55:00,
2013-02-14 05:00:00,57.4,54.2,30.08,NW,315,1.0,3.0,89,0.00,,,0.00,0,Wunderground v.1.15,2013-02-14 15:00:00,
2013-02-14 05:10:00,56.9,54.0,30.08,NW,315,3.0,3.0,90,0.00,,,0.00,0,Wunderground v.1.15,2013-02-14 15:10:00,
2013-02-14 05:15:00,57.5,54.6,30.08,NW,315,3.0,3.0,90,0.00,,,0.00,0,Wunderground v.1.15,2013-02-14 15:15:00,
2013-02-14 05:20:00,57.9,54.7,30.08,NW,315,3.0,4.0,89,0.00,,,0.00,0,Wunderground v.1.15,2013-02-14 15:20:00,
2013-02-14 05:25:00,58.3,54.8,30.08,NW,315,3.0,4.0,88,0.00,,,0.00,0,Wunderground v.1.15,2013-02-14 15:25:00,
2013-02-14 05:30:00,58.4,54.5,30.08,NW,315,3.0,3.0,87,0.00,,,0.00,0,Wunderground v.1.15,2013-02-14 15:30:00,
2013-02-14 05:40:00,58.3,54.4,30.08,NW,315,2.0,3.0,87,0.00,,,0.00,0,Wunderground v.1.15,2013-02-14 15:40:00,
2013-02-14 05:45:00,57.6,54.4,30.08,NW,315,3.0,4.0,89,0.00,,,0.00,0,Wunderground v.1.15,2013-02-14 15:45:00,
2013-02-14 05:50:00,57.2,54.3,30.08,NW,315,3.0,3.0,90,0.00,,,0.00,0,Wunderground v.1.15,2013-02-14 15:50:00,
2013-02-14 05:55:00,57.2,54.3,30.08,NW,315,2.0,3.0,90,0.00,,,0.00,0,Wunderground v.1.15,2013-02-14 15:55:00,
2013-02-14 06:00:00,57.1,54.2,30.08,NW,315,1.0,1.0,90,0.00,,,0.00,0,Wunderground v.1.15,2013-02-14 16:00:00,
2013-02-14 06:10:00,57.4,54.8,30.08,NW,315,2.0,3.0,91,0.00,,,0.00,0,Wunderground v.1.15,2013-02-14 16:10:00,
2013-02-14 06:15:00,57.6,54.7,30.08,NW,315,3.0,3.0,90,0.00,,,0.00,0,Wunderground v.1.15,2013-02-14 16:15:00,
2013-02-14 06:20:00,57.5,54.6,30.08,NW,315,1.0,3.0,90,0.00,,,0.00,0,Wunderground v.1.15,2013-02-14 16:20:00,
2013-02-14 06:25:00,57.6,54.7,30.08,NW,315,1.0,3.0,90,0.00,,,0.00,0,Wunderground v.1.15,2013-02-14 16:25:00,
2013-02-14 06:30:00,57.8,54.6,30.09,NW,315,1.0,1.0,89,0.00,,,0.00,0,Wunderground v.1.15,2013-02-14 16:30:00,
2013-02-14 06:40:00,57.6,54.4,30.09,NW,315,2.0,3.0,89,0.00,,,0.00,0,Wunderground v.1.15,2013-02-14 16:40:00,
2013-02-14 06:45:00,57.6,54.4,30.09,NW,315,2.0,3.0,89,0.00,,,0.00,0,Wunderground v.1.15,2013-02-14 16:45:00,
2013-02-14 06:50:00,57.7,55.4,30.10,NW,315,1.0,3.0,92,0.00,,,0.00,0,Wunderground v.1.15,2013-02-14 16:50:00,
2013-02-14 06:55:00,57.7,54.8,30.10,NW,315,1.0,3.0,90,0.00,,,0.00,7,Wunderground v.1.15,2013-02-14 16:55:00,
2013-02-14 07:00:00,58.0,54.8,30.11,NW,315,3.0,3.0,89,0.00,,,0.00,9,Wunderground v.1.15,2013-02-14 17:00:00,
2013-02-14 07:10:00,58.6,55.1,30.11,NW,315,2.0,2.0,88,0.00,,,0.00,16,Wunderground v.1.15,2013-02-14 17:10:00,
2013-02-14 07:15:00,58.6,55.1,30.11,NW,315,2.0,2.0,88,0.00,,,0.00,19,Wunderground v.1.15,2013-02-14 17:15:00,
2013-02-14 07:20:00,58.7,55.2,30.11,NW,315,2.0,3.0,88,0.00,,,0.00,39,Wunderground v.1.15,2013-02-14 17:20:00,
2013-02-14 07:25:00,59.2,55.3,30.11,NW,315,2.0,3.0,87,0.00,,,0.00,47,Wunderground v.1.15,2013-02-14 17:25:00,
2013-02-14 07:30:00,59.3,55.7,30.11,NW,315,2.0,3.0,88,0.00,,,0.00,63,Wunderground v.1.15,2013-02-14 17:30:00,
2013-02-14 07:35:00,60.2,56.6,30.11,NW,315,1.0,3.0,88,0.00,,,0.00,91,Wunderground v.1.15,2013-02-14 17:35:00,
2013-02-14 07:40:00,60.4,56.5,30.11,North,350,1.0,4.0,87,0.00,,,0.00,107,Wunderground v.1.15,2013-02-14 17:40:00,
2013-02-14 07:45:00,61.0,57.1,30.11,North,350,2.0,4.0,87,0.00,,,0.00,134,Wunderground v.1.15,2013-02-14 17:45:00,
2013-02-14 07:50:00,62.1,57.9,30.11,North,350,2.0,2.0,86,0.00,,,0.00,156,Wunderground v.1.15,2013-02-14 17:50:00,
2013-02-14 07:55:00,62.7,58.5,30.11,North,350,0.0,2.0,86,0.00,,,0.00,165,Wunderground v.1.15,2013-02-14 17:55:00,
2013-02-14 08:00:00,63.1,58.8,30.12,North,350,0.0,0.0,86,0.00,,,0.00,216,Wunderground v.1.15,2013-02-14 18:00:00,
2013-02-14 08:10:00,64.3,59.7,30.12,North,350,0.0,2.0,85,0.00,,,0.00,243,Wunderground v.1.15,2013-02-14 18:10:00,
2013-02-14 08:15:00,65.0,59.4,30.12,North,350,1.0,2.0,82,0.00,,,0.00,279,Wunderground v.1.15,2013-02-14 18:15:00,
2013-02-14 08:25:00,66.6,59.5,30.12,ESE,113,1.0,1.0,78,0.00,,,0.00,323,Wunderground v.1.15,2013-02-14 18:25:00,
2013-02-14 08:30:00,67.4,59.9,30.12,ESE,113,1.0,1.0,77,0.00,,,0.00,309,Wunderground v.1.15,2013-02-14 18:30:00,
2013-02-14 08:35:00,67.8,60.0,30.12,ESE,113,2.0,2.0,76,0.00,,,0.00,355,Wunderground v.1.15,2013-02-14 18:35:00,
2013-02-14 08:40:00,68.4,60.5,30.12,ESE,115,3.0,3.0,76,0.00,,,0.00,360,Wunderground v.1.15,2013-02-14 18:40:00,
2013-02-14 08:50:00,68.8,61.3,30.13,South,173,3.0,4.0,77,0.00,,,0.00,397,Wunderground v.1.15,2013-02-14 18:50:00,
2013-02-14 08:55:00,68.6,61.1,30.12,SSW,207,4.0,4.0,77,0.00,,,0.00,411,Wunderground v.1.15,2013-02-14 18:55:00,
2013-02-14 09:00:00,68.4,61.3,30.12,SSE,164,4.0,4.0,78,0.00,,,0.00,432,Wunderground v.1.15,2013-02-14 19:00:00,
2013-02-14 09:10:00,68.6,62.2,30.13,SSE,151,2.0,2.0,80,0.00,,,0.00,352,Wunderground v.1.15,2013-02-14 19:10:00,
2013-02-14 09:15:00,68.5,61.7,30.14,WSW,256,1.0,4.0,79,0.00,,,0.00,132,Wunderground v.1.15,2013-02-14 19:15:00,
2013-02-14 09:20:00,68.2,61.4,30.13,WSW,258,3.0,3.0,79,0.00,,,0.00,246,Wunderground v.1.15,2013-02-14 19:20:00,
2013-02-14 09:30:00,68.1,61.3,30.13,West,265,3.0,3.0,79,0.00,,,0.00,185,Wunderground v.1.15,2013-02-14 19:30:00,
2013-02-14 09:35:00,68.5,61.4,30.13,WNW,287,2.0,3.0,78,0.00,,,0.00,738,Wunderground v.1.15,2013-02-14 19:35:00,
2013-02-14 09:40:00,68.9,61.8,30.14,SW,217,1.0,1.0,78,0.00,,,0.00,271,Wunderground v.1.15,2013-02-14 19:40:00,
2013-02-14 09:50:00,70.2,62.6,30.14,ENE,68,5.0,12.0,77,0.00,,,0.00,302,Wunderground v.1.15,2013-02-14 19:50:00,
2013-02-14 09:55:00,70.9,63.0,30.13,ENE,66,5.0,12.0,76,0.00,,,0.00,853,Wunderground v.1.15,2013-02-14 19:55:00,
2013-02-14 10:00:00,71.4,63.1,30.13,ENE,72,5.0,5.0,75,0.00,,,0.00,863,Wunderground v.1.15,2013-02-14 20:00:00,
2013-02-14 10:10:00,71.6,62.9,30.13,ENE,61,7.0,10.0,74,0.00,,,0.00,422,Wunderground v.1.15,2013-02-14 20:10:00,
2013-02-14 10:15:00,71.4,63.1,30.13,ESE,102,8.0,10.0,75,0.00,,,0.00,318,Wunderground v.1.15,2013-02-14 20:15:00,
2013-02-14 10:25:00,71.3,63.3,30.13,NE,56,7.0,11.0,76,0.00,,,0.00,642,Wunderground v.1.15,2013-02-14 20:25:00,
2013-02-14 10:30:00,71.4,63.1,30.13,East,88,8.0,8.0,75,0.00,,,0.00,858,Wunderground v.1.15,2013-02-14 20:30:00,
2013-02-14 10:40:00,71.2,62.5,30.12,SE,142,7.0,7.0,74,0.00,,,0.00,1034,Wunderground v.1.15,2013-02-14 20:40:00,
2013-02-14 10:45:00,71.7,62.6,30.12,SE,132,9.0,9.0,73,0.00,,,0.00,1002,Wunderground v.1.15,2013-02-14 20:45:00,
2013-02-14 10:50:00,72.0,63.3,30.12,ENE,70,9.0,10.0,74,0.00,,,0.00,1035,Wunderground v.1.15,2013-02-14 20:50:00,
2013-02-14 11:00:00,71.7,62.6,30.12,ENE,65,7.0,14.0,73,0.00,,,0.00,1129,Wunderground v.1.15,2013-02-14 21:00:00,
2013-02-14 11:10:00,71.2,62.1,30.12,ESE,106,8.0,10.0,73,0.00,,,0.00,362,Wunderground v.1.15,2013-02-14 21:10:00,
2013-02-14 11:15:00,71.1,62.4,30.12,SE,135,7.0,11.0,74,0.00,,,0.00,323,Wunderground v.1.15,2013-02-14 21:15:00,
2013-02-14 11:20:00,70.8,62.1,30.12,ESE,109,9.0,9.0,74,0.00,,,0.00,327,Wunderground v.1.15,2013-02-14 21:20:00,
2013-02-14 11:25:00,70.5,62.2,30.12,East,81,9.0,9.0,75,0.00,,,0.00,336,Wunderground v.1.15,2013-02-14 21:25:00,
2013-02-14 11:30:00,70.8,62.5,30.11,ESE,123,8.0,9.0,75,0.00,,,0.00,413,Wunderground v.1.15,2013-02-14 21:30:00,
2013-02-14 11:40:00,71.4,63.8,30.12,SSE,157,7.0,7.0,77,0.00,,,0.00,510,Wunderground v.1.15,2013-02-14 21:40:00,
2013-02-14 11:45:00,71.1,64.3,30.11,South,171,6.0,7.0,79,0.00,,,0.00,436,Wunderground v.1.15,2013-02-14 21:45:00,
2013-02-14 11:50:00,71.1,64.3,30.11,South,170,6.0,6.0,79,0.00,,,0.00,473,Wunderground v.1.15,2013-02-14 21:50:00,
2013-02-14 12:00:00,70.5,63.3,30.11,SE,131,8.0,8.0,78,0.00,,,0.00,450,Wunderground v.1.15,2013-02-14 22:00:00,
2013-02-14 12:10:00,71.0,64.2,30.10,ESE,123,6.0,6.0,79,0.00,,,0.00,475,Wunderground v.1.15,2013-02-14 22:10:00,
2013-02-14 12:15:00,71.2,64.0,30.10,SSE,165,6.0,10.0,78,0.00,,,0.00,446,Wunderground v.1.15,2013-02-14 22:15:00,
2013-02-14 12:20:00,71.3,63.7,30.10,SE,144,7.0,11.0,77,0.00,,,0.00,469,Wunderground v.1.15,2013-02-14 22:20:00,
2013-02-14 12:25:00,71.3,63.7,30.10,SE,142,8.0,19.0,77,0.00,,,0.00,534,Wunderground v.1.15,2013-02-14 22:25:00,
2013-02-14 12:35:00,71.3,63.3,30.09,SE,130,9.0,9.0,76,0.00,,,0.00,390,Wunderground v.1.15,2013-02-14 22:35:00,
2013-02-14 12:40:00,71.2,63.6,30.09,ESE,117,8.0,8.0,77,0.00,,,0.00,1188,Wunderground v.1.15,2013-02-14 22:40:00,
2013-02-14 12:45:00,71.3,63.7,30.09,SE,130,8.0,11.0,77,0.00,,,0.00,533,Wunderground v.1.15,2013-02-14 22:45:00,
2013-02-14 12:50:00,71.4,64.2,30.09,ESE,119,7.0,15.0,78,0.00,,,0.00,336,Wunderground v.1.15,2013-02-14 22:50:00,
2013-02-14 13:00:00,70.4,63.9,30.08,SE,134,8.0,12.0,80,0.00,,,0.00,373,Wunderground v.1.15,2013-02-14 23:00:00,
2013-02-14 13:10:00,70.3,64.5,30.08,SSE,152,7.0,7.0,82,0.00,,,0.00,403,Wunderground v.1.15,2013-02-14 23:10:00,
2013-02-14 13:15:00,70.3,64.5,30.08,ENE,66,7.0,7.0,82,0.00,,,0.00,452,Wunderground v.1.15,2013-02-14 23:15:00,
2013-02-14 13:20:00,70.5,65.1,30.08,SSE,152,6.0,6.0,83,0.00,,,0.00,1238,Wunderground v.1.15,2013-02-14 23:20:00,
2013-02-14 13:25:00,70.6,65.2,30.07,SSE,156,6.0,10.0,83,0.00,,,0.00,629,Wunderground v.1.15,2013-02-14 23:25:00,
2013-02-14 13:30:00,70.9,65.5,30.07,SSE,152,6.0,6.0,83,0.00,,,0.00,1076,Wunderground v.1.15,2013-02-14 23:30:00,
2013-02-14 13:35:00,70.8,65.0,30.07,SE,144,6.0,7.0,82,0.00,,,0.00,367,Wunderground v.1.15,2013-02-14 23:35:00,
2013-02-14 13:45:00,70.2,64.8,30.06,SE,138,8.0,8.0,83,0.00,,,0.00,255,Wunderground v.1.15,2013-02-14 23:45:00,
2013-02-14 13:50:00,70.2,65.1,30.06,ESE,109,6.0,7.0,84,0.00,,,0.00,264,Wunderground v.1.15,2013-02-14 23:50:00,
2013-02-14 13:55:00,70.1,65.0,30.05,ESE,123,6.0,8.0,84,0.00,,,0.00,209,Wunderground v.1.15,2013-02-14 23:55:00,
2013-02-14 14:00:00,69.7,64.6,30.05,ESE,111,8.0,11.0,84,0.00,,,0.00,165,Wunderground v.1.15,2013-02-15 00:00:00,
2013-02-14 14:10:00,69.5,64.5,30.05,SE,136,7.0,7.0,84,0.00,,,0.00,179,Wunderground v.1.15,2013-02-15 00:10:00,
2013-02-14 14:15:00,69.5,65.1,30.05,East,82,6.0,7.0,86,0.00,,,0.00,188,Wunderground v.1.15,2013-02-15 00:15:00,
2013-02-14 14:20:00,69.5,64.8,30.04,ENE,66,6.0,9.0,85,0.00,,,0.00,265,Wunderground v.1.15,2013-02-15 00:20:00,
2013-02-14 14:30:00,69.8,64.4,30.04,ESE,118,6.0,10.0,83,0.00,,,0.00,288,Wunderground v.1.15,2013-02-15 00:30:00,
2013-02-14 14:35:00,69.8,64.4,30.04,East,97,5.0,10.0,83,0.00,,,0.00,204,Wunderground v.1.15,2013-02-15 00:35:00,
2013-02-14 14:40:00,70.0,64.6,30.04,ESE,117,4.0,4.0,83,0.00,,,0.00,250,Wunderground v.1.15,2013-02-15 00:40:00,
2013-02-14 14:50:00,70.0,64.2,30.03,East,88,6.0,6.0,82,0.00,,,0.00,248,Wunderground v.1.15,2013-02-15 00:50:00,
2013-02-14 14:55:00,70.3,64.2,30.03,SE,144,6.0,6.0,81,0.00,,,0.00,288,Wunderground v.1.15,2013-02-15 00:55:00,
2013-02-14 15:00:00,70.5,64.4,30.03,NE,41,6.0,6.0,81,0.00,,,0.00,274,Wunderground v.1.15,2013-02-15 01:00:00,
2013-02-14 15:10:00,70.8,64.3,30.02,East,88,6.0,6.0,80,0.00,,,0.00,294,Wunderground v.1.15,2013-02-15 01:10:00,
2013-02-14 15:20:00,71.3,64.8,30.02,SE,134,6.0,6.0,80,0.00,,,0.00,353,Wunderground v.1.15,2013-02-15 01:20:00,
2013-02-14 15:25:00,71.2,64.4,30.01,East,94,7.0,7.0,79,0.00,,,0.00,216,Wunderground v.1.15,2013-02-15 01:25:00,
2013-02-14 15:35:00,70.8,64.0,30.01,East,88,7.0,9.0,79,0.00,,,0.00,200,Wunderground v.1.15,2013-02-15 01:35:00,
2013-02-14 15:40:00,70.9,64.1,30.01,NE,53,5.0,5.0,79,0.00,,,0.00,192,Wunderground v.1.15,2013-02-15 01:40:00,
2013-02-14 15:45:00,71.1,63.9,30.02,SE,132,4.0,9.0,78,0.00,,,0.00,214,Wunderground v.1.15,2013-02-15 01:45:00,
2013-02-14 15:55:00,71.2,64.0,30.02,East,80,5.0,5.0,78,0.00,,,0.00,230,Wunderground v.1.15,2013-02-15 01:55:00,
2013-02-14 16:00:00,71.6,64.4,30.02,East,84,5.0,9.0,78,0.00,,,0.00,202,Wunderground v.1.15,2013-02-15 02:00:00,
2013-02-14 16:10:00,71.6,64.4,30.02,ENE,72,5.0,5.0,78,0.00,,,0.00,128,Wunderground v.1.15,2013-02-15 02:10:00,
2013-02-14 16:15:00,71.6,64.4,30.01,NE,34,4.0,5.0,78,0.00,,,0.00,206,Wunderground v.1.15,2013-02-15 02:15:00,
2013-02-14 16:20:00,71.8,64.9,30.01,SE,132,4.0,4.0,79,0.00,,,0.00,352,Wunderground v.1.15,2013-02-15 02:20:00,
2013-02-14 16:25:00,72.1,65.2,30.01,ESE,116,4.0,4.0,79,0.00,,,0.00,404,Wunderground v.1.15,2013-02-15 02:25:00,
2013-02-14 16:35:00,73.2,65.6,30.01,ESE,120,4.0,6.0,77,0.00,,,0.00,369,Wunderground v.1.15,2013-02-15 02:35:00,
2013-02-14 16:40:00,73.4,65.7,30.01,SE,129,4.0,7.0,77,0.00,,,0.00,373,Wunderground v.1.15,2013-02-15 02:40:00,
2013-02-14 16:45:00,73.3,65.7,30.01,SE,135,5.0,7.0,77,0.00,,,0.00,385,Wunderground v.1.15,2013-02-15 02:45:00,
2013-02-14 16:50:00,73.5,65.8,30.01,ENE,60,4.0,5.0,77,0.00,,,0.00,146,Wunderground v.1.15,2013-02-15 02:50:00,
2013-02-14 17:00:00,73.0,65.4,30.02,SE,136,5.0,5.0,77,0.00,,,0.00,77,Wunderground v.1.15,2013-02-15 03:00:00,
2013-02-14 17:10:00,71.7,64.8,30.03,ENE,67,5.0,5.0,79,0.00,,,0.00,49,Wunderground v.1.15,2013-02-15 03:10:00,
2013-02-14 17:15:00,71.2,64.4,30.02,ENE,73,4.0,5.0,79,0.00,,,0.00,51,Wunderground v.1.15,2013-02-15 03:15:00,
2013-02-14 17:25:00,70.9,64.8,30.03,ENE,63,2.0,6.0,81,0.00,,,0.00,35,Wunderground v.1.15,2013-02-15 03:25:00,
2013-02-14 17:30:00,70.7,64.9,30.03,ESE,117,3.0,4.0,82,0.00,,,0.00,35,Wunderground v.1.15,2013-02-15 03:30:00,
2013-02-14 17:35:00,70.4,65.0,30.03,East,82,4.0,5.0,83,0.00,,,0.00,32,Wunderground v.1.15,2013-02-15 03:35:00,
2013-02-14 17:40:00,70.2,64.8,30.03,East,87,3.0,3.0,83,0.00,,,0.00,30,Wunderground v.1.15,2013-02-15 03:40:00,
2013-02-14 17:50:00,69.9,64.8,30.03,ESE,108,1.0,1.0,84,0.00,,,0.00,23,Wunderground v.1.15,2013-02-15 03:50:00,
2013-02-14 17:55:00,69.8,64.4,30.03,NNE,29,2.0,3.0,83,0.00,,,0.00,21,Wunderground v.1.15,2013-02-15 03:55:00,
2013-02-14 18:00:00,69.7,64.6,30.03,WNW,294,2.0,5.0,84,0.00,,,0.00,16,Wunderground v.1.15,2013-02-15 04:00:00,
2013-02-14 18:10:00,69.1,64.4,30.03,WNW,294,3.0,4.0,85,0.00,,,0.00,11,Wunderground v.1.15,2013-02-15 04:10:00,
2013-02-14 18:15:00,68.7,64.0,30.03,West,275,3.0,6.0,85,0.00,,,0.00,7,Wunderground v.1.15,2013-02-15 04:15:00,
2013-02-14 18:25:00,68.9,63.9,30.03,West,270,3.0,4.0,84,0.00,,,0.00,0,Wunderground v.1.15,2013-02-15 04:25:00,
2013-02-14 18:30:00,68.5,63.8,30.03,West,271,2.0,2.0,85,0.00,,,0.00,0,Wunderground v.1.15,2013-02-15 04:30:00,
2013-02-14 18:35:00,68.3,63.6,30.03,West,277,3.0,3.0,85,0.00,,,0.00,0,Wunderground v.1.15,2013-02-15 04:35:00,
2013-02-14 18:40:00,68.0,63.3,30.03,WNW,289,4.0,4.0,85,0.00,,,0.00,0,Wunderground v.1.15,2013-02-15 04:40:00,
2013-02-14 18:50:00,68.1,63.1,30.03,West,268,3.0,3.0,84,0.00,,,0.00,0,Wunderground v.1.15,2013-02-15 04:50:00,
2013-02-14 18:55:00,67.9,62.9,30.04,WSW,250,3.0,5.0,84,0.00,,,0.00,0,Wunderground v.1.15,2013-02-15 04:55:00,
2013-02-14 19:00:00,67.6,62.9,30.04,WSW,251,2.0,3.0,85,0.00,,,0.00,0,Wunderground v.1.15,2013-02-15 05:00:00,
2013-02-14 19:05:00,67.2,62.9,30.04,WSW,251,2.0,4.0,86,0.00,,,0.00,0,Wunderground v.1.15,2013-02-15 05:05:00,
2013-02-14 19:10:00,66.7,62.7,30.04,WSW,251,4.0,4.0,87,0.00,,,0.00,0,Wunderground v.1.15,2013-02-15 05:10:00,
2013-02-14 19:15:00,66.3,62.3,30.04,WSW,251,4.0,4.0,87,0.00,,,0.00,0,Wunderground v.1.15,2013-02-15 05:15:00,
2013-02-14 19:20:00,66.1,62.4,30.04,WSW,251,2.0,2.0,88,0.00,,,0.00,0,Wunderground v.1.15,2013-02-15 05:20:00,
2013-02-14 19:25:00,65.9,62.2,30.04,WSW,251,2.0,4.0,88,0.00,,,0.00,0,Wunderground v.1.15,2013-02-15 05:25:00,
2013-02-14 19:30:00,65.8,62.5,30.04,WSW,249,4.0,6.0,89,0.00,,,0.00,0,Wunderground v.1.15,2013-02-15 05:30:00,
2013-02-14 19:35:00,65.8,62.1,30.04,WSW,248,4.0,6.0,88,0.00,,,0.00,0,Wunderground v.1.15,2013-02-15 05:35:00,
2013-02-14 19:45:00,66.0,62.3,30.05,WSW,250,4.0,5.0,88,0.00,,,0.00,0,Wunderground v.1.15,2013-02-15 05:45:00,
2013-02-14 19:50:00,66.2,62.2,30.05,WSW,246,4.0,4.0,87,0.00,,,0.00,0,Wunderground v.1.15,2013-02-15 05:50:00,
2013-02-14 20:00:00,66.0,62.0,30.06,WSW,248,3.0,3.0,87,0.00,,,0.00,0,Wunderground v.1.15,2013-02-15 06:00:00,
2013-02-14 20:10:00,65.4,61.8,30.06,WSW,248,2.0,2.0,88,0.00,,,0.00,0,Wunderground v.1.15,2013-02-15 06:10:00,
2013-02-14 20:15:00,65.1,61.5,30.06,WSW,248,1.0,2.0,88,0.00,,,0.00,0,Wunderground v.1.15,2013-02-15 06:15:00,
2013-02-14 20:25:00,64.0,60.7,30.06,West,274,3.0,4.0,89,0.00,,,0.00,0,Wunderground v.1.15,2013-02-15 06:25:00,
2013-02-14 20:30:00,63.5,60.5,30.06,NW,325,3.0,4.0,90,0.00,,,0.00,0,Wunderground v.1.15,2013-02-15 06:30:00,
2013-02-14 20:35:00,63.3,60.0,30.07,NW,325,4.0,4.0,89,0.00,,,0.00,0,Wunderground v.1.15,2013-02-15 06:35:00,
2013-02-14 20:45:00,62.8,59.8,30.07,NW,325,2.0,4.0,90,0.00,,,0.00,0,Wunderground v.1.15,2013-02-15 06:45:00,
2013-02-14 20:50:00,62.2,59.5,30.07,NW,325,3.0,3.0,91,0.00,,,0.00,0,Wunderground v.1.15,2013-02-15 06:50:00,
2013-02-14 21:00:00,61.5,58.8,30.07,NW,325,2.0,4.0,91,0.00,,,0.00,0,Wunderground v.1.15,2013-02-15 07:00:00,
2013-02-14 21:10:00,60.8,58.5,30.07,NW,325,3.0,3.0,92,0.00,,,0.00,0,Wunderground v.1.15,2013-02-15 07:10:00,
2013-02-14 21:20:00,60.4,58.1,30.07,NW,325,1.0,1.0,92,0.00,,,0.00,0,Wunderground v.1.15,2013-02-15 07:20:00,
2013-02-14 21:25:00,60.3,58.0,30.07,NW,325,0.0,1.0,92,0.00,,,0.00,0,Wunderground v.1.15,2013-02-15 07:25:00,
2013-02-14 21:30:00,60.3,58.0,30.08,NW,325,1.0,2.0,92,0.00,,,0.00,0,Wunderground v.1.15,2013-02-15 07:30:00,
2013-02-14 21:40:00,60.5,58.2,30.08,NW,325,2.0,2.0,92,0.00,,,0.00,0,Wunderground v.1.15,2013-02-15 07:40:00,
2013-02-14 21:45:00,61.2,58.2,30.08,NW,325,3.0,3.0,90,0.00,,,0.00,0,Wunderground v.1.15,2013-02-15 07:45:00,
2013-02-14 21:50:00,61.8,58.5,30.08,NW,325,4.0,4.0,89,0.00,,,0.00,0,Wunderground v.1.15,2013-02-15 07:50:00,
2013-02-14 21:55:00,61.7,58.1,30.09,NW,325,2.0,4.0,88,0.00,,,0.00,0,Wunderground v.1.15,2013-02-15 07:55:00,
2013-02-14 22:00:00,60.8,57.2,30.09,NW,325,2.0,3.0,88,0.00,,,0.00,0,Wunderground v.1.15,2013-02-15 08:00:00,
2013-02-14 22:10:00,59.9,57.3,30.09,NW,325,2.0,2.0,91,0.00,,,0.00,0,Wunderground v.1.15,2013-02-15 08:10:00,
2013-02-14 22:15:00,59.4,56.8,30.09,North,355,2.0,2.0,91,0.00,,,0.00,0,Wunderground v.1.15,2013-02-15 08:15:00,
2013-02-14 22:20:00,59.2,57.2,30.09,NNW,340,2.0,5.0,93,0.00,,,0.00,0,Wunderground v.1.15,2013-02-15 08:20:00,
2013-02-14 22:30:00,59.4,57.1,30.09,NNW,347,3.0,4.0,92,0.00,,,0.00,0,Wunderground v.1.15,2013-02-15 08:30:00,
2013-02-14 22:35:00,59.1,57.1,30.09,NNW,340,4.0,4.0,93,0.00,,,0.00,0,Wunderground v.1.15,2013-02-15 08:35:00,
2013-02-14 22:40:00,59.9,57.3,30.09,North,355,5.0,5.0,91,0.00,,,0.00,0,Wunderground v.1.15,2013-02-15 08:40:00,
2013-02-14 22:45:00,60.5,57.2,30.09,North,355,4.0,5.0,89,0.00,,,0.00,0,Wunderground v.1.15,2013-02-15 08:45:00,
2013-02-14 22:55:00,60.1,56.8,30.09,North,355,3.0,4.0,89,0.00,,,0.00,0,Wunderground v.1.15,2013-02-15 08:55:00,
2013-02-14 23:00:00,60.4,56.8,30.09,North,355,3.0,4.0,88,0.00,,,0.00,0,Wunderground v.1.15,2013-02-15 09:00:00,
2013-02-14 23:10:00,60.1,56.5,30.08,WNW,290,3.0,4.0,88,0.00,,,0.00,0,Wunderground v.1.15,2013-02-15 09:10:00,
2013-02-14 23:15:00,59.4,55.8,30.08,NNW,345,3.0,4.0,88,0.00,,,0.00,0,Wunderground v.1.15,2013-02-15 09:15:00,
2013-02-14 23:25:00,59.1,55.5,30.08,NNW,334,3.0,3.0,88,0.00,,,0.00,0,Wunderground v.1.15,2013-02-15 09:25:00,
2013-02-14 23:30:00,59.4,55.5,30.08,NNW,334,2.0,3.0,87,0.00,,,0.00,0,Wunderground v.1.15,2013-02-15 09:30:00,
2013-02-14 23:35:00,59.1,55.2,30.08,NNW,335,2.0,3.0,87,0.00,,,0.00,0,Wunderground v.1.15,2013-02-15 09:35:00,
2013-02-14 23:40:00,59.0,54.8,30.08,NNW,335,1.0,1.0,86,0.00,,,0.00,0,Wunderground v.1.15,2013-02-15 09:40:00,
2013-02-14 23:50:00,58.9,54.7,30.08,NNW,335,1.0,2.0,86,0.00,,,0.00,0,Wunderground v.1.15,2013-02-15 09:50:00,
2013-02-14 23:55:00,58.6,54.4,30.08,NNW,335,1.0,4.0,86,0.00,,,0.00,0,Wunderground v.1.15,2013-02-15 09:55:00,